Bookmark and Share
Track history (hours):
 

Ceylon

Last reported at 2014-Apr-19 22:15 UTC. Time now 2014-Apr-20 23:49 UTC.
Position N 31°19' W 123°09'.

Length 180 m; draft 10.4 m.

Type: Tanker. MMSI: 563847000.

NotesDate/timePositionNaut miles runAvg speedWind from/ knotsBaromVisibWave heightAir tempDewpointWater temp
2014-Apr-19 22:15N 31°19' W 123°09'912.2
2014-Apr-19 21:33N 31°24' W 123°17'1212.3
2014-Apr-19 20:33N 31°32' W 123°28'1312.3
2014-Apr-19 19:31N 31°40' W 123°39'10212.1
2014-Apr-19 11:08N 33°12' W 124°31'12710.8
2014-Apr-18 23:24N 35°18' W 124°23'13711.5
2014-Apr-18 11:27N 37°24' W 123°16'910.1
2014-Apr-18 10:33N 37°31' W 123°09'9 9.6
2014-Apr-18 09:33N 37°36' W 122°59'10 9.7
2014-Apr-18 08:33N 37°42' W 122°49'9 9.1
2014-Apr-18 07:33N 37°46' W 122°39'9 8.7
2014-Apr-18 06:33N 37°49' W 122°29'6 6.4
2014-Apr-18 05:33N 37°46' W 122°22'1 0.7
2014-Apr-18 04:33N 37°45' W 122°21'0 0.2
2014-Apr-18 03:33N 37°46' W 122°21'0 0.1
2014-Apr-18 02:33N 37°46' W 122°21'0 0.0
2014-Apr-18 01:33N 37°46' W 122°21'0 0.0
2014-Apr-18 00:33N 37°46' W 122°21'0 0.0
2014-Apr-17 23:33N 37°46' W 122°21'0 0.1
2014-Apr-17 22:33N 37°46' W 122°21'0 0.1
2014-Apr-17 21:33N 37°45' W 122°21'0 0.0
2014-Apr-17 20:33N 37°45' W 122°21'0 0.0
2014-Apr-17 19:33N 37°45' W 122°21'0 0.0
2014-Apr-17 18:33N 37°45' W 122°21'0 0.1
2014-Apr-17 17:33N 37°45' W 122°21'0 0.2
2014-Apr-17 16:33N 37°46' W 122°21'4 4.2
2014-Apr-17 15:33N 37°49' W 122°24'6 6.1
2014-Apr-17 14:32N 37°55' W 122°25'0 0.0
2014-Apr-17 13:32N 37°55' W 122°25'0 0.0
2014-Apr-17 12:32N 37°55' W 122°25'0 0.0
2014-Apr-17 11:32N 37°55' W 122°25'0 0.1
2014-Apr-17 10:32N 37°55' W 122°25'0 0.1
2014-Apr-17 09:32N 37°55' W 122°25'0 0.0
2014-Apr-17 08:32N 37°55' W 122°25'0 0.0
2014-Apr-17 07:32N 37°55' W 122°25'0 0.0
2014-Apr-17 06:32N 37°55' W 122°25'0 0.0
2014-Apr-17 05:32N 37°55' W 122°25'0 0.0
2014-Apr-17 04:32N 37°55' W 122°25'0 0.0
2014-Apr-17 03:32N 37°55' W 122°25'0 0.0
2014-Apr-17 02:32N 37°55' W 122°25'0 0.0
2014-Apr-17 01:32N 37°55' W 122°25'0 0.0
2014-Apr-17 00:32N 37°55' W 122°25'0 0.0
2014-Apr-16 23:32N 37°55' W 122°25'0 0.0
2014-Apr-16 22:32N 37°55' W 122°25'0 0.0
2014-Apr-16 21:32N 37°55' W 122°25'0 0.0
2014-Apr-16 20:32N 37°55' W 122°25'0 0.0
2014-Apr-16 19:32N 37°55' W 122°25'0 0.0
2014-Apr-16 18:32N 37°55' W 122°25'0 0.0
2014-Apr-16 17:32N 37°55' W 122°25'0 0.0
2014-Apr-16 16:32N 37°55' W 122°25'0 0.0
2014-Apr-16 15:32N 37°55' W 122°25'0 0.0
2014-Apr-16 14:32N 37°55' W 122°25'0 0.0
2014-Apr-16 13:32N 37°55' W 122°25'0 0.0
2014-Apr-16 12:32N 37°55' W 122°25'0 0.0
2014-Apr-16 11:32N 37°55' W 122°25'0 0.0
2014-Apr-16 10:32N 37°55' W 122°25'0 0.0
2014-Apr-16 09:32N 37°55' W 122°25'0 0.0
2014-Apr-16 08:32N 37°55' W 122°25'0 0.0
2014-Apr-16 07:32N 37°55' W 122°25'0 0.0
2014-Apr-16 06:32N 37°55' W 122°25'0 0.0
2014-Apr-16 05:32N 37°55' W 122°25'0 0.0
2014-Apr-16 04:32N 37°55' W 122°25'0 0.0
2014-Apr-16 03:32N 37°55' W 122°25'0 0.0
2014-Apr-16 02:32N 37°55' W 122°25'0 0.0
2014-Apr-16 01:32N 37°55' W 122°25'0 0.0
2014-Apr-16 00:29N 37°55' W 122°25'0 0.0
2014-Apr-15 23:32N 37°55' W 122°25'0 0.0
2014-Apr-15 22:29N 37°55' W 122°25'0 0.0
2014-Apr-15 21:29N 37°55' W 122°25'0 0.0
2014-Apr-15 20:31N 37°55' W 122°25'0 0.0
2014-Apr-15 19:31N 37°55' W 122°25'0 0.0
2014-Apr-15 18:31N 37°55' W 122°25'0 0.0
2014-Apr-15 17:31N 37°55' W 122°25'0 0.0
2014-Apr-15 16:28N 37°55' W 122°25'0 0.0
2014-Apr-15 15:31N 37°55' W 122°25'0 0.1
2014-Apr-15 14:28N 37°55' W 122°25'0 0.0
2014-Apr-15 12:32N 37°55' W 122°25'0 0.0
2014-Apr-15 11:32N 37°55' W 122°25'0 0.0
2014-Apr-15 10:32N 37°55' W 122°25'0 0.0
2014-Apr-15 07:32N 37°55' W 122°25'0 0.0
2014-Apr-15 06:32N 37°55' W 122°25'0 0.0
2014-Apr-15 05:32N 37°55' W 122°25'0 0.0
2014-Apr-15 03:32N 37°55' W 122°25'0 0.0
2014-Apr-15 01:31N 37°55' W 122°25'0 0.0
2014-Apr-15 00:31N 37°55' W 122°25'0 0.0
2014-Apr-14 23:31N 37°55' W 122°25'0 0.0
2014-Apr-14 20:31N 37°55' W 122°25'0 0.0
2014-Apr-14 19:31N 37°55' W 122°25'0 0.0
2014-Apr-14 18:31N 37°55' W 122°25'0 0.0
2014-Apr-14 16:31N 37°55' W 122°25'0 0.0
2014-Apr-14 15:31N 37°55' W 122°25'0 0.0
2014-Apr-14 14:31N 37°55' W 122°25'6 1.9
2014-Apr-14 11:30N 37°50' W 122°23'0 0.0
2014-Apr-14 10:30N 37°50' W 122°23'0 0.0
2014-Apr-14 09:33N 37°50' W 122°23'0 0.0
2014-Apr-14 08:33N 37°50' W 122°23'0 0.1
2014-Apr-14 07:33N 37°50' W 122°23'0 0.1
2014-Apr-14 06:33N 37°50' W 122°23'0 0.1
2014-Apr-14 05:33N 37°50' W 122°23'0 0.0
2014-Apr-13 22:33N 37°50' W 122°23'0 0.0
2014-Apr-13 21:33N 37°50' W 122°23'0 0.0
2014-Apr-13 20:31N 37°50' W 122°23'0 0.1
2014-Apr-13 19:31N 37°49' W 122°23'0 0.0
2014-Apr-13 18:31N 37°49' W 122°23'0 0.0
2014-Apr-13 17:31N 37°49' W 122°23'0 0.0
2014-Apr-13 16:31N 37°49' W 122°23'0 0.0
2014-Apr-13 15:31N 37°49' W 122°23'0 0.1
2014-Apr-13 14:31N 37°49' W 122°23'0 0.1
2014-Apr-13 13:28N 37°50' W 122°23'0 0.1
2014-Apr-13 12:31N 37°50' W 122°23'0 0.1
2014-Apr-13 11:31N 37°50' W 122°23'0 0.0
2014-Apr-13 10:31N 37°50' W 122°23'0 0.0
2014-Apr-13 09:28N 37°50' W 122°23'0 0.1
2014-Apr-13 08:31N 37°50' W 122°23'0 0.0
2014-Apr-13 07:28N 37°50' W 122°23'0 0.2
2014-Apr-13 06:31N 37°50' W 122°23'0 0.1
2014-Apr-13 05:33N 37°49' W 122°23'1010.4
2014-Apr-13 04:33N 37°46' W 122°36'1111.3
2014-Apr-13 03:33N 37°40' W 122°48'1212.2
2014-Apr-13 02:33N 37°33' W 123°00'1110.6
2014-Apr-13 01:33N 37°25' W 123°09'5 5.2
2014-Apr-13 00:34N 37°20' W 123°10'1111.0
2014-Apr-12 23:33N 37°09' W 123°13'1211.7
2014-Apr-12 22:33N 36°58' W 123°16'1211.6
2014-Apr-12 21:33N 36°46' W 123°17'1211.6
2014-Apr-12 20:33N 36°35' W 123°20'1212.1
2014-Apr-12 19:33N 36°23' W 123°23'1211.8
2014-Apr-12 18:33N 36°11' W 123°26'1212.0
2014-Apr-12 17:33N 35°60' W 123°29'1212.1
2014-Apr-12 16:33N 35°48' W 123°31'1212.4
2014-Apr-12 15:33N 35°36' W 123°35'1212.1
2014-Apr-12 14:33N 35°24' W 123°37'1212.2
2014-Apr-12 13:33N 35°11' W 123°40'1211.9
2014-Apr-12 12:33N 35°00' W 123°35'1312.0
2014-Apr-12 11:28N 34°49' W 123°27'1511.7
2014-Apr-12 10:12N 34°35' W 123°20'1011.8
2014-Apr-12 09:23N 34°27' W 123°15'1011.8
2014-Apr-12 08:32N 34°17' W 123°10'1312.1
2014-Apr-12 07:30N 34°06' W 123°04'1312.0
2014-Apr-12 06:25N 33°54' W 122°57'1012.0
2014-Apr-12 05:33N 33°45' W 122°52'1312.1
2014-Apr-12 04:29N 33°33' W 122°45'1111.8
2014-Apr-12 03:33N 33°23' W 122°39'1212.0
2014-Apr-12 02:31N 33°12' W 122°33'4812.0
2014-Apr-11 22:33N 32°30' W 122°07'1212.3
2014-Apr-11 21:33N 32°19' W 122°01'1212.2
2014-Apr-11 20:33N 32°08' W 121°54'6 6.5
2014-Apr-11 19:33N 32°02' W 121°52'1 0.7
2014-Apr-11 18:33N 32°01' W 121°53'0 0.5
2014-Apr-11 17:34N 32°01' W 121°53'1 0.6
2014-Apr-11 16:33N 32°01' W 121°54'3 2.9
2014-Apr-11 15:33N 31°58' W 121°53'1211.9
2014-Apr-11 14:33N 31°49' W 121°44'1212.3
2014-Apr-11 13:33N 31°40' W 121°34'1212.5
2014-Apr-11 12:33N 31°31' W 121°24'1212.2
2014-Apr-11 11:33N 31°22' W 121°14'1212.0
2014-Apr-11 10:32N 31°13' W 121°05'1512.0
2014-Apr-11 09:16N 31°02' W 120°53'911.5
2014-Apr-11 08:29N 30°55' W 120°46'1111.7
2014-Apr-11 07:33N 30°47' W 120°38'1211.7
2014-Apr-11 06:34N 30°38' W 120°28'1110.8
2014-Apr-11 05:33N 30°30' W 120°20'1211.5
2014-Apr-11 04:33N 30°22' W 120°11'1212.1
2014-Apr-11 03:33N 30°13' W 120°02'1212.2
2014-Apr-11 02:33N 30°04' W 119°52'1312.3
2014-Apr-11 01:29N 29°54' W 119°42'1212.3
2014-Apr-11 00:33N 29°45' W 119°33'1312.3
2014-Apr-10 23:32N 29°36' W 119°23'1312.3
2014-Apr-10 22:28N 29°27' W 119°13'1112.2
2014-Apr-10 21:33N 29°18' W 119°04'1612.4
2014-Apr-10 20:17N 29°07' W 118°52'912.6
2014-Apr-10 19:33N 28°60' W 118°45'1312.6
2014-Apr-10 18:32N 28°50' W 118°35'2512.8
2014-Apr-10 16:33N 28°32' W 118°16'1312.9
2014-Apr-10 15:33N 28°22' W 118°05'2712.9
2014-Apr-10 13:28N 28°03' W 117°44'2512.7
2014-Apr-10 11:28N 27°45' W 117°25'1312.6
2014-Apr-10 10:28N 27°36' W 117°15'4212.6
2014-Apr-10 07:09N 27°05' W 116°43'712.7
2014-Apr-10 06:33N 26°60' W 116°37'  

Dump ship's entire track history

sailing weather and tide predictions

Ceylon — 9VMU6 — position and weather